sensor_id;sensor_type;location;lat;lon;timestamp;P1;durP1;ratioP1;P2;durP2;ratioP2
13866;SDS011;7003;46.982;15.248;2023-01-31T00:01:32;0.10;;;0.10;;
13866;SDS011;7003;46.982;15.248;2023-01-31T00:04:01;0.13;;;0.13;;
13866;SDS011;7003;46.982;15.248;2023-01-31T00:06:31;1.17;;;0.53;;
13866;SDS011;7003;46.982;15.248;2023-01-31T00:09:00;0.30;;;0.30;;
13866;SDS011;7003;46.982;15.248;2023-01-31T00:11:28;0.30;;;0.30;;
13866;SDS011;7003;46.982;15.248;2023-01-31T00:14:00;1.83;;;0.93;;
13866;SDS011;7003;46.982;15.248;2023-01-31T00:16:29;0.30;;;0.30;;
13866;SDS011;7003;46.982;15.248;2023-01-31T00:18:56;0.67;;;0.40;;
13866;SDS011;7003;46.982;15.248;2023-01-31T00:21:25;0.13;;;0.13;;
13866;SDS011;7003;46.982;15.248;2023-01-31T00:23:55;0.40;;;0.40;;
13866;SDS011;7003;46.982;15.248;2023-01-31T00:26:27;0.23;;;0.23;;
13866;SDS011;7003;46.982;15.248;2023-01-31T00:29:00;0.37;;;0.37;;
13866;SDS011;7003;46.982;15.248;2023-01-31T00:31:29;0.00;;;0.00;;
13866;SDS011;7003;46.982;15.248;2023-01-31T00:33:57;0.00;;;0.00;;
13866;SDS011;7003;46.982;15.248;2023-01-31T00:36:28;0.23;;;0.10;;
13866;SDS011;7003;46.982;15.248;2023-01-31T00:39:02;0.13;;;0.13;;
13866;SDS011;7003;46.982;15.248;2023-01-31T00:41:34;0.20;;;0.20;;
13866;SDS011;7003;46.982;15.248;2023-01-31T00:44:06;0.30;;;0.30;;
13866;SDS011;7003;46.982;15.248;2023-01-31T00:46:33;0.03;;;0.03;;
13866;SDS011;7003;46.982;15.248;2023-01-31T00:49:02;0.10;;;0.10;;
13866;SDS011;7003;46.982;15.248;2023-01-31T00:51:29;0.30;;;0.30;;
13866;SDS011;7003;46.982;15.248;2023-01-31T00:53:57;0.00;;;0.00;;
13866;SDS011;7003;46.982;15.248;2023-01-31T00:56:25;0.50;;;0.27;;
13866;SDS011;7003;46.982;15.248;2023-01-31T00:58:52;0.10;;;0.10;;
13866;SDS011;7003;46.982;15.248;2023-01-31T01:01:22;0.30;;;0.30;;
13866;SDS011;7003;46.982;15.248;2023-01-31T01:03:54;0.20;;;0.20;;
13866;SDS011;7003;46.982;15.248;2023-01-31T01:06:23;0.10;;;0.10;;
13866;SDS011;7003;46.982;15.248;2023-01-31T01:08:53;0.20;;;0.20;;
13866;SDS011;7003;46.982;15.248;2023-01-31T01:11:25;0.93;;;0.20;;
13866;SDS011;7003;46.982;15.248;2023-01-31T01:13:54;0.13;;;0.13;;
13866;SDS011;7003;46.982;15.248;2023-01-31T01:16:24;0.10;;;0.10;;
13866;SDS011;7003;46.982;15.248;2023-01-31T01:18:54;0.30;;;0.30;;
13866;SDS011;7003;46.982;15.248;2023-01-31T01:21:23;0.20;;;0.20;;
13866;SDS011;7003;46.982;15.248;2023-01-31T01:23:52;0.10;;;0.10;;
13866;SDS011;7003;46.982;15.248;2023-01-31T01:26:22;0.10;;;0.10;;
13866;SDS011;7003;46.982;15.248;2023-01-31T01:28:53;0.10;;;0.10;;
13866;SDS011;7003;46.982;15.248;2023-01-31T01:31:23;0.40;;;0.27;;
13866;SDS011;7003;46.982;15.248;2023-01-31T01:33:55;0.20;;;0.20;;
13866;SDS011;7003;46.982;15.248;2023-01-31T01:36:24;0.20;;;0.20;;
13866;SDS011;7003;46.982;15.248;2023-01-31T01:38:51;0.20;;;0.20;;
13866;SDS011;7003;46.982;15.248;2023-01-31T01:41:22;0.67;;;0.67;;
13866;SDS011;7003;46.982;15.248;2023-01-31T01:43:50;0.10;;;0.10;;
13866;SDS011;7003;46.982;15.248;2023-01-31T01:46:22;0.20;;;0.20;;
13866;SDS011;7003;46.982;15.248;2023-01-31T01:48:55;0.13;;;0.13;;
13866;SDS011;7003;46.982;15.248;2023-01-31T01:51:26;0.10;;;0.10;;
13866;SDS011;7003;46.982;15.248;2023-01-31T01:53:56;0.47;;;0.47;;
13866;SDS011;7003;46.982;15.248;2023-01-31T01:56:30;0.13;;;0.13;;
13866;SDS011;7003;46.982;15.248;2023-01-31T01:59:06;0.20;;;0.20;;
13866;SDS011;7003;46.982;15.248;2023-01-31T02:01:42;0.10;;;0.10;;
13866;SDS011;7003;46.982;15.248;2023-01-31T02:04:14;0.10;;;0.10;;
13866;SDS011;7003;46.982;15.248;2023-01-31T02:06:44;0.10;;;0.10;;
13866;SDS011;7003;46.982;15.248;2023-01-31T02:09:15;0.40;;;0.40;;
13866;SDS011;7003;46.982;15.248;2023-01-31T02:11:50;0.10;;;0.10;;
13866;SDS011;7003;46.982;15.248;2023-01-31T02:14:17;0.10;;;0.10;;
13866;SDS011;7003;46.982;15.248;2023-01-31T02:16:46;0.20;;;0.20;;
13866;SDS011;7003;46.982;15.248;2023-01-31T02:19:15;0.10;;;0.10;;
13866;SDS011;7003;46.982;15.248;2023-01-31T02:21:55;0.00;;;0.00;;
13866;SDS011;7003;46.982;15.248;2023-01-31T02:24:46;0.40;;;0.40;;
13866;SDS011;7003;46.982;15.248;2023-01-31T02:28:08;0.20;;;0.20;;
13866;SDS011;7003;46.982;15.248;2023-01-31T02:34:22;0.10;;;0.10;;
13866;SDS011;7003;46.982;15.248;2023-01-31T02:36:57;0.10;;;0.10;;
13866;SDS011;7003;46.982;15.248;2023-01-31T02:39:38;0.60;;;0.20;;
13866;SDS011;7003;46.982;15.248;2023-01-31T02:42:15;0.10;;;0.10;;
13866;SDS011;7003;46.982;15.248;2023-01-31T02:44:53;0.00;;;0.00;;
13866;SDS011;7003;46.982;15.248;2023-01-31T02:47:27;2.27;;;0.40;;
13866;SDS011;7003;46.982;15.248;2023-01-31T02:50:01;0.87;;;0.30;;
13866;SDS011;7003;46.982;15.248;2023-01-31T02:52:34;0.43;;;0.30;;
13866;SDS011;7003;46.982;15.248;2023-01-31T02:55:09;0.47;;;0.10;;
13866;SDS011;7003;46.982;15.248;2023-01-31T02:57:59;0.20;;;0.20;;
13866;SDS011;7003;46.982;15.248;2023-01-31T03:00:30;0.40;;;0.40;;
13866;SDS011;7003;46.982;15.248;2023-01-31T03:03:02;0.10;;;0.10;;
13866;SDS011;7003;46.982;15.248;2023-01-31T03:05:35;0.10;;;0.10;;
13866;SDS011;7003;46.982;15.248;2023-01-31T03:08:04;0.07;;;0.07;;
13866;SDS011;7003;46.982;15.248;2023-01-31T03:10:41;0.07;;;0.07;;
13866;SDS011;7003;46.982;15.248;2023-01-31T03:13:28;0.73;;;0.23;;
13866;SDS011;7003;46.982;15.248;2023-01-31T03:16:09;0.43;;;0.20;;
13866;SDS011;7003;46.982;15.248;2023-01-31T03:19:02;0.03;;;0.03;;
13866;SDS011;7003;46.982;15.248;2023-01-31T03:21:43;0.20;;;0.20;;
13866;SDS011;7003;46.982;15.248;2023-01-31T03:24:14;0.10;;;0.10;;
13866;SDS011;7003;46.982;15.248;2023-01-31T03:26:44;0.50;;;0.20;;
13866;SDS011;7003;46.982;15.248;2023-01-31T03:29:13;0.10;;;0.10;;
13866;SDS011;7003;46.982;15.248;2023-01-31T03:31:43;0.13;;;0.13;;
13866;SDS011;7003;46.982;15.248;2023-01-31T03:34:14;0.10;;;0.10;;
13866;SDS011;7003;46.982;15.248;2023-01-31T03:36:48;0.30;;;0.30;;
13866;SDS011;7003;46.982;15.248;2023-01-31T03:39:27;0.10;;;0.10;;
13866;SDS011;7003;46.982;15.248;2023-01-31T03:42:02;0.20;;;0.20;;
13866;SDS011;7003;46.982;15.248;2023-01-31T03:44:35;0.10;;;0.10;;
13866;SDS011;7003;46.982;15.248;2023-01-31T03:47:13;0.00;;;0.00;;
13866;SDS011;7003;46.982;15.248;2023-01-31T03:49:46;0.30;;;0.30;;
13866;SDS011;7003;46.982;15.248;2023-01-31T03:52:21;0.10;;;0.10;;
13866;SDS011;7003;46.982;15.248;2023-01-31T03:54:57;0.10;;;0.10;;
13866;SDS011;7003;46.982;15.248;2023-01-31T03:57:32;0.53;;;0.10;;
13866;SDS011;7003;46.982;15.248;2023-01-31T04:00:02;0.60;;;0.60;;
13866;SDS011;7003;46.982;15.248;2023-01-31T04:02:36;0.63;;;0.63;;
13866;SDS011;7003;46.982;15.248;2023-01-31T04:05:06;0.50;;;0.50;;
13866;SDS011;7003;46.982;15.248;2023-01-31T04:07:40;1.70;;;0.40;;
13866;SDS011;7003;46.982;15.248;2023-01-31T04:10:08;0.10;;;0.10;;
13866;SDS011;7003;46.982;15.248;2023-01-31T04:12:39;0.10;;;0.10;;
13866;SDS011;7003;46.982;15.248;2023-01-31T04:15:07;0.93;;;0.93;;
13866;SDS011;7003;46.982;15.248;2023-01-31T04:17:36;0.47;;;0.20;;
13866;SDS011;7003;46.982;15.248;2023-01-31T04:20:03;0.10;;;0.10;;
13866;SDS011;7003;46.982;15.248;2023-01-31T04:22:34;0.40;;;0.40;;
13866;SDS011;7003;46.982;15.248;2023-01-31T04:25:03;0.60;;;0.40;;
13866;SDS011;7003;46.982;15.248;2023-01-31T04:27:32;0.10;;;0.10;;
13866;SDS011;7003;46.982;15.248;2023-01-31T04:30:00;0.93;;;0.30;;
13866;SDS011;7003;46.982;15.248;2023-01-31T04:32:28;0.10;;;0.10;;
13866;SDS011;7003;46.982;15.248;2023-01-31T04:34:57;0.20;;;0.20;;
13866;SDS011;7003;46.982;15.248;2023-01-31T04:37:28;0.10;;;0.10;;
13866;SDS011;7003;46.982;15.248;2023-01-31T04:39:55;2.87;;;0.40;;
13866;SDS011;7003;46.982;15.248;2023-01-31T04:42:24;0.30;;;0.30;;
13866;SDS011;7003;46.982;15.248;2023-01-31T04:44:53;0.20;;;0.20;;
13866;SDS011;7003;46.982;15.248;2023-01-31T04:47:23;0.13;;;0.13;;
13866;SDS011;7003;46.982;15.248;2023-01-31T04:49:50;1.57;;;0.27;;
13866;SDS011;7003;46.982;15.248;2023-01-31T04:52:19;0.30;;;0.30;;
13866;SDS011;7003;46.982;15.248;2023-01-31T04:54:51;0.10;;;0.10;;
13866;SDS011;7003;46.982;15.248;2023-01-31T04:57:20;0.53;;;0.23;;
13866;SDS011;7003;46.982;15.248;2023-01-31T04:59:51;1.30;;;0.97;;
13866;SDS011;7003;46.982;15.248;2023-01-31T05:02:22;0.07;;;0.07;;
13866;SDS011;7003;46.982;15.248;2023-01-31T05:04:52;0.30;;;0.30;;
13866;SDS011;7003;46.982;15.248;2023-01-31T05:07:19;0.77;;;0.30;;
13866;SDS011;7003;46.982;15.248;2023-01-31T05:09:48;0.73;;;0.40;;
13866;SDS011;7003;46.982;15.248;2023-01-31T05:12:18;0.47;;;0.47;;
13866;SDS011;7003;46.982;15.248;2023-01-31T05:14:47;0.10;;;0.10;;
13866;SDS011;7003;46.982;15.248;2023-01-31T05:17:19;0.33;;;0.20;;
13866;SDS011;7003;46.982;15.248;2023-01-31T05:19:52;0.17;;;0.17;;
13866;SDS011;7003;46.982;15.248;2023-01-31T05:22:22;1.10;;;0.30;;
13866;SDS011;7003;46.982;15.248;2023-01-31T05:24:50;0.50;;;0.50;;
13866;SDS011;7003;46.982;15.248;2023-01-31T05:27:17;0.20;;;0.20;;
13866;SDS011;7003;46.982;15.248;2023-01-31T05:29:44;2.40;;;0.73;;
13866;SDS011;7003;46.982;15.248;2023-01-31T05:32:15;0.10;;;0.10;;
13866;SDS011;7003;46.982;15.248;2023-01-31T05:34:47;0.43;;;0.43;;
13866;SDS011;7003;46.982;15.248;2023-01-31T05:37:14;0.30;;;0.30;;
13866;SDS011;7003;46.982;15.248;2023-01-31T05:39:42;0.10;;;0.10;;
13866;SDS011;7003;46.982;15.248;2023-01-31T05:42:11;0.20;;;0.20;;
13866;SDS011;7003;46.982;15.248;2023-01-31T05:44:39;0.10;;;0.10;;
13866;SDS011;7003;46.982;15.248;2023-01-31T05:47:09;0.40;;;0.40;;
13866;SDS011;7003;46.982;15.248;2023-01-31T05:49:37;0.37;;;0.37;;
13866;SDS011;7003;46.982;15.248;2023-01-31T05:52:05;0.20;;;0.20;;
13866;SDS011;7003;46.982;15.248;2023-01-31T05:54:35;0.77;;;0.60;;
13866;SDS011;7003;46.982;15.248;2023-01-31T05:57:05;0.20;;;0.20;;
13866;SDS011;7003;46.982;15.248;2023-01-31T05:59:35;0.90;;;0.27;;
13866;SDS011;7003;46.982;15.248;2023-01-31T06:02:06;0.47;;;0.40;;
13866;SDS011;7003;46.982;15.248;2023-01-31T06:04:38;0.50;;;0.50;;
13866;SDS011;7003;46.982;15.248;2023-01-31T06:07:07;1.07;;;0.57;;
13866;SDS011;7003;46.982;15.248;2023-01-31T06:09:34;1.33;;;0.40;;
13866;SDS011;7003;46.982;15.248;2023-01-31T06:12:06;0.20;;;0.20;;
13866;SDS011;7003;46.982;15.248;2023-01-31T06:14:38;0.60;;;0.53;;
13866;SDS011;7003;46.982;15.248;2023-01-31T06:17:06;0.30;;;0.30;;
13866;SDS011;7003;46.982;15.248;2023-01-31T06:19:36;0.40;;;0.40;;
13866;SDS011;7003;46.982;15.248;2023-01-31T06:22:09;2.10;;;0.60;;
13866;SDS011;7003;46.982;15.248;2023-01-31T06:24:37;0.67;;;0.53;;
13866;SDS011;7003;46.982;15.248;2023-01-31T06:27:09;0.10;;;0.10;;
13866;SDS011;7003;46.982;15.248;2023-01-31T06:29:45;0.30;;;0.30;;
13866;SDS011;7003;46.982;15.248;2023-01-31T06:32:17;0.20;;;0.20;;
13866;SDS011;7003;46.982;15.248;2023-01-31T06:34:49;0.43;;;0.40;;
13866;SDS011;7003;46.982;15.248;2023-01-31T06:37:21;0.30;;;0.30;;
13866;SDS011;7003;46.982;15.248;2023-01-31T06:39:51;0.33;;;0.33;;
13866;SDS011;7003;46.982;15.248;2023-01-31T06:42:27;1.00;;;0.53;;
13866;SDS011;7003;46.982;15.248;2023-01-31T06:44:59;1.10;;;0.90;;
13866;SDS011;7003;46.982;15.248;2023-01-31T06:47:29;1.47;;;1.13;;
13866;SDS011;7003;46.982;15.248;2023-01-31T06:50:01;1.40;;;1.10;;
13866;SDS011;7003;46.982;15.248;2023-01-31T06:52:33;1.53;;;1.43;;
13866;SDS011;7003;46.982;15.248;2023-01-31T06:55:02;5.33;;;1.43;;
13866;SDS011;7003;46.982;15.248;2023-01-31T06:57:32;1.67;;;1.30;;
13866;SDS011;7003;46.982;15.248;2023-01-31T07:00:02;1.40;;;1.10;;
13866;SDS011;7003;46.982;15.248;2023-01-31T07:02:32;1.10;;;0.93;;
13866;SDS011;7003;46.982;15.248;2023-01-31T07:05:02;0.97;;;0.60;;
13866;SDS011;7003;46.982;15.248;2023-01-31T07:07:37;0.83;;;0.77;;
13866;SDS011;7003;46.982;15.248;2023-01-31T07:10:06;0.70;;;0.70;;
13866;SDS011;7003;46.982;15.248;2023-01-31T07:12:37;4.13;;;1.27;;
13866;SDS011;7003;46.982;15.248;2023-01-31T07:15:08;1.50;;;1.03;;
13866;SDS011;7003;46.982;15.248;2023-01-31T07:17:39;1.33;;;1.23;;
13866;SDS011;7003;46.982;15.248;2023-01-31T07:20:09;1.13;;;1.00;;
13866;SDS011;7003;46.982;15.248;2023-01-31T07:22:43;4.10;;;2.50;;
13866;SDS011;7003;46.982;15.248;2023-01-31T07:25:15;1.63;;;1.50;;
13866;SDS011;7003;46.982;15.248;2023-01-31T07:27:47;4.00;;;2.03;;
13866;SDS011;7003;46.982;15.248;2023-01-31T07:30:16;1.43;;;1.33;;
13866;SDS011;7003;46.982;15.248;2023-01-31T07:32:46;1.13;;;1.03;;
13866;SDS011;7003;46.982;15.248;2023-01-31T07:35:18;1.70;;;1.60;;
13866;SDS011;7003;46.982;15.248;2023-01-31T07:37:55;1.23;;;1.13;;
13866;SDS011;7003;46.982;15.248;2023-01-31T07:40:25;0.67;;;0.67;;
13866;SDS011;7003;46.982;15.248;2023-01-31T07:42:56;2.40;;;1.53;;
13866;SDS011;7003;46.982;15.248;2023-01-31T07:45:25;0.60;;;0.50;;
13866;SDS011;7003;46.982;15.248;2023-01-31T07:47:56;0.70;;;0.70;;
13866;SDS011;7003;46.982;15.248;2023-01-31T07:50:27;0.90;;;0.80;;
13866;SDS011;7003;46.982;15.248;2023-01-31T07:52:57;1.30;;;1.13;;
13866;SDS011;7003;46.982;15.248;2023-01-31T07:55:29;0.40;;;0.40;;
13866;SDS011;7003;46.982;15.248;2023-01-31T07:57:59;1.70;;;0.97;;
13866;SDS011;7003;46.982;15.248;2023-01-31T08:00:28;0.60;;;0.60;;
13866;SDS011;7003;46.982;15.248;2023-01-31T08:03:18;0.70;;;0.70;;
13866;SDS011;7003;46.982;15.248;2023-01-31T08:06:00;2.03;;;1.23;;
13866;SDS011;7003;46.982;15.248;2023-01-31T08:08:31;4.43;;;2.83;;
13866;SDS011;7003;46.982;15.248;2023-01-31T08:11:02;1.77;;;0.90;;
13866;SDS011;7003;46.982;15.248;2023-01-31T08:13:32;0.53;;;0.53;;
13866;SDS011;7003;46.982;15.248;2023-01-31T08:16:01;1.10;;;0.60;;
13866;SDS011;7003;46.982;15.248;2023-01-31T08:18:29;3.73;;;1.20;;
13866;SDS011;7003;46.982;15.248;2023-01-31T08:20:57;1.70;;;1.60;;
13866;SDS011;7003;46.982;15.248;2023-01-31T08:23:26;5.13;;;3.93;;
13866;SDS011;7003;46.982;15.248;2023-01-31T08:26:00;2.77;;;1.50;;
13866;SDS011;7003;46.982;15.248;2023-01-31T08:28:29;0.73;;;0.73;;
13866;SDS011;7003;46.982;15.248;2023-01-31T08:30:57;3.60;;;2.27;;
13866;SDS011;7003;46.982;15.248;2023-01-31T08:33:26;4.00;;;1.93;;
13866;SDS011;7003;46.982;15.248;2023-01-31T08:35:54;1.40;;;1.23;;
13866;SDS011;7003;46.982;15.248;2023-01-31T08:38:26;1.47;;;1.33;;
13866;SDS011;7003;46.982;15.248;2023-01-31T08:40:57;0.67;;;0.47;;
13866;SDS011;7003;46.982;15.248;2023-01-31T08:43:29;0.67;;;0.67;;
13866;SDS011;7003;46.982;15.248;2023-01-31T08:45:57;0.40;;;0.40;;
13866;SDS011;7003;46.982;15.248;2023-01-31T08:48:25;0.60;;;0.50;;
13866;SDS011;7003;46.982;15.248;2023-01-31T08:50:58;1.10;;;1.00;;
13866;SDS011;7003;46.982;15.248;2023-01-31T08:53:28;8.17;;;1.40;;
13866;SDS011;7003;46.982;15.248;2023-01-31T08:55:59;1.60;;;1.20;;
13866;SDS011;7003;46.982;15.248;2023-01-31T08:58:33;0.93;;;0.93;;
13866;SDS011;7003;46.982;15.248;2023-01-31T09:01:03;2.87;;;1.00;;
13866;SDS011;7003;46.982;15.248;2023-01-31T09:03:33;1.90;;;1.30;;
13866;SDS011;7003;46.982;15.248;2023-01-31T09:06:01;0.73;;;0.70;;
13866;SDS011;7003;46.982;15.248;2023-01-31T09:08:31;0.73;;;0.73;;
13866;SDS011;7003;46.982;15.248;2023-01-31T09:10:59;2.57;;;1.27;;
13866;SDS011;7003;46.982;15.248;2023-01-31T09:13:28;0.57;;;0.57;;
13866;SDS011;7003;46.982;15.248;2023-01-31T09:16:00;1.80;;;0.83;;
13866;SDS011;7003;46.982;15.248;2023-01-31T09:18:29;3.03;;;0.80;;
13866;SDS011;7003;46.982;15.248;2023-01-31T09:21:02;1.80;;;0.90;;
13866;SDS011;7003;46.982;15.248;2023-01-31T09:26:27;1.40;;;0.80;;
13866;SDS011;7003;46.982;15.248;2023-01-31T09:28:56;1.70;;;1.33;;
13866;SDS011;7003;46.982;15.248;2023-01-31T09:31:27;3.83;;;1.30;;
13866;SDS011;7003;46.982;15.248;2023-01-31T09:33:58;1.10;;;0.77;;
13866;SDS011;7003;46.982;15.248;2023-01-31T09:36:27;1.90;;;1.20;;
13866;SDS011;7003;46.982;15.248;2023-01-31T09:38:55;0.97;;;0.93;;
13866;SDS011;7003;46.982;15.248;2023-01-31T09:41:25;0.67;;;0.67;;
13866;SDS011;7003;46.982;15.248;2023-01-31T09:44:02;2.70;;;0.70;;
13866;SDS011;7003;46.982;15.248;2023-01-31T09:46:36;1.53;;;1.23;;
13866;SDS011;7003;46.982;15.248;2023-01-31T09:49:07;3.20;;;1.27;;
13866;SDS011;7003;46.982;15.248;2023-01-31T09:51:49;0.53;;;0.40;;
13866;SDS011;7003;46.982;15.248;2023-01-31T09:54:24;1.20;;;0.50;;
13866;SDS011;7003;46.982;15.248;2023-01-31T09:57:03;0.60;;;0.60;;
13866;SDS011;7003;46.982;15.248;2023-01-31T09:59:44;0.40;;;0.40;;
13866;SDS011;7003;46.982;15.248;2023-01-31T10:02:25;0.27;;;0.27;;
13866;SDS011;7003;46.982;15.248;2023-01-31T10:05:05;1.70;;;1.23;;
13866;SDS011;7003;46.982;15.248;2023-01-31T10:07:47;3.13;;;1.23;;
13866;SDS011;7003;46.982;15.248;2023-01-31T10:10:22;0.30;;;0.30;;
13866;SDS011;7003;46.982;15.248;2023-01-31T10:12:57;1.47;;;0.73;;
13866;SDS011;7003;46.982;15.248;2023-01-31T10:15:30;1.20;;;0.73;;
13866;SDS011;7003;46.982;15.248;2023-01-31T10:18:07;2.70;;;0.30;;
13866;SDS011;7003;46.982;15.248;2023-01-31T10:20:42;0.27;;;0.27;;
13866;SDS011;7003;46.982;15.248;2023-01-31T10:23:14;0.97;;;0.43;;
13866;SDS011;7003;46.982;15.248;2023-01-31T10:25:50;1.77;;;0.70;;
13866;SDS011;7003;46.982;15.248;2023-01-31T10:28:23;0.40;;;0.40;;
13866;SDS011;7003;46.982;15.248;2023-01-31T10:30:57;0.40;;;0.40;;
13866;SDS011;7003;46.982;15.248;2023-01-31T10:33:33;0.43;;;0.43;;
13866;SDS011;7003;46.982;15.248;2023-01-31T10:36:08;2.13;;;1.03;;
13866;SDS011;7003;46.982;15.248;2023-01-31T10:38:44;0.47;;;0.43;;
13866;SDS011;7003;46.982;15.248;2023-01-31T10:41:24;0.60;;;0.47;;
13866;SDS011;7003;46.982;15.248;2023-01-31T10:44:05;0.50;;;0.50;;
13866;SDS011;7003;46.982;15.248;2023-01-31T10:46:41;1.33;;;1.20;;
13866;SDS011;7003;46.982;15.248;2023-01-31T10:49:11;0.20;;;0.20;;
13866;SDS011;7003;46.982;15.248;2023-01-31T10:51:47;0.87;;;0.60;;
13866;SDS011;7003;46.982;15.248;2023-01-31T10:54:35;1.13;;;0.50;;
13866;SDS011;7003;46.982;15.248;2023-01-31T10:57:15;3.70;;;0.73;;
13866;SDS011;7003;46.982;15.248;2023-01-31T10:59:45;0.60;;;0.40;;
13866;SDS011;7003;46.982;15.248;2023-01-31T11:02:17;0.30;;;0.30;;
13866;SDS011;7003;46.982;15.248;2023-01-31T11:04:51;1.13;;;0.40;;
13866;SDS011;7003;46.982;15.248;2023-01-31T11:07:22;2.63;;;0.80;;
13866;SDS011;7003;46.982;15.248;2023-01-31T11:09:52;0.33;;;0.30;;
13866;SDS011;7003;46.982;15.248;2023-01-31T11:12:38;0.20;;;0.20;;
13866;SDS011;7003;46.982;15.248;2023-01-31T11:15:14;1.60;;;0.50;;
13866;SDS011;7003;46.982;15.248;2023-01-31T11:17:44;0.87;;;0.73;;
13866;SDS011;7003;46.982;15.248;2023-01-31T11:20:22;0.50;;;0.33;;
13866;SDS011;7003;46.982;15.248;2023-01-31T11:22:53;1.10;;;0.30;;
13866;SDS011;7003;46.982;15.248;2023-01-31T11:25:22;0.60;;;0.60;;
13866;SDS011;7003;46.982;15.248;2023-01-31T11:27:52;0.40;;;0.40;;
13866;SDS011;7003;46.982;15.248;2023-01-31T11:30:24;0.30;;;0.30;;
13866;SDS011;7003;46.982;15.248;2023-01-31T11:32:57;0.30;;;0.30;;
13866;SDS011;7003;46.982;15.248;2023-01-31T11:35:27;0.23;;;0.23;;
13866;SDS011;7003;46.982;15.248;2023-01-31T11:37:58;0.30;;;0.30;;
13866;SDS011;7003;46.982;15.248;2023-01-31T11:40:29;1.37;;;0.87;;
13866;SDS011;7003;46.982;15.248;2023-01-31T11:43:01;0.20;;;0.20;;
13866;SDS011;7003;46.982;15.248;2023-01-31T11:45:30;2.10;;;0.65;;
13866;SDS011;7003;46.982;15.248;2023-01-31T11:48:04;0.38;;;0.38;;
13866;SDS011;7003;46.982;15.248;2023-01-31T11:50:38;0.93;;;0.47;;
13866;SDS011;7003;46.982;15.248;2023-01-31T11:53:14;0.30;;;0.30;;
13866;SDS011;7003;46.982;15.248;2023-01-31T11:55:45;0.73;;;0.43;;
13866;SDS011;7003;46.982;15.248;2023-01-31T11:58:16;4.55;;;0.57;;
13866;SDS011;7003;46.982;15.248;2023-01-31T12:00:50;3.10;;;0.50;;
13866;SDS011;7003;46.982;15.248;2023-01-31T12:03:22;0.30;;;0.30;;
13866;SDS011;7003;46.982;15.248;2023-01-31T12:06:00;0.15;;;0.15;;
13866;SDS011;7003;46.982;15.248;2023-01-31T12:08:29;0.98;;;0.50;;
13866;SDS011;7003;46.982;15.248;2023-01-31T12:10:59;2.40;;;0.90;;
13866;SDS011;7003;46.982;15.248;2023-01-31T12:13:30;0.73;;;0.45;;
13866;SDS011;7003;46.982;15.248;2023-01-31T12:16:11;0.20;;;0.20;;
13866;SDS011;7003;46.982;15.248;2023-01-31T12:18:50;5.57;;;0.60;;
13866;SDS011;7003;46.982;15.248;2023-01-31T12:21:37;0.85;;;0.52;;
13866;SDS011;7003;46.982;15.248;2023-01-31T12:24:16;1.73;;;0.60;;
13866;SDS011;7003;46.982;15.248;2023-01-31T12:26:55;0.93;;;0.50;;
13866;SDS011;7003;46.982;15.248;2023-01-31T12:29:36;0.30;;;0.30;;
13866;SDS011;7003;46.982;15.248;2023-01-31T12:32:26;0.90;;;0.60;;
13866;SDS011;7003;46.982;15.248;2023-01-31T12:35:17;0.95;;;0.50;;
13866;SDS011;7003;46.982;15.248;2023-01-31T12:38:01;1.45;;;0.65;;
13866;SDS011;7003;46.982;15.248;2023-01-31T12:40:38;0.32;;;0.32;;
13866;SDS011;7003;46.982;15.248;2023-01-31T12:43:15;0.52;;;0.40;;
13866;SDS011;7003;46.982;15.248;2023-01-31T12:45:59;0.95;;;0.45;;
13866;SDS011;7003;46.982;15.248;2023-01-31T12:48:37;1.13;;;0.52;;
13866;SDS011;7003;46.982;15.248;2023-01-31T12:51:28;1.17;;;0.57;;
13866;SDS011;7003;46.982;15.248;2023-01-31T12:54:11;0.50;;;0.50;;
13866;SDS011;7003;46.982;15.248;2023-01-31T12:56:55;2.67;;;0.40;;
13866;SDS011;7003;46.982;15.248;2023-01-31T12:59:34;0.57;;;0.35;;
13866;SDS011;7003;46.982;15.248;2023-01-31T13:02:17;0.13;;;0.13;;
13866;SDS011;7003;46.982;15.248;2023-01-31T13:05:01;1.52;;;0.45;;
13866;SDS011;7003;46.982;15.248;2023-01-31T13:07:37;0.43;;;0.43;;
13866;SDS011;7003;46.982;15.248;2023-01-31T13:10:16;0.30;;;0.30;;
13866;SDS011;7003;46.982;15.248;2023-01-31T13:12:56;0.47;;;0.45;;
13866;SDS011;7003;46.982;15.248;2023-01-31T13:15:27;0.80;;;0.50;;
13866;SDS011;7003;46.982;15.248;2023-01-31T13:18:08;0.20;;;0.20;;
13866;SDS011;7003;46.982;15.248;2023-01-31T13:20:44;1.85;;;0.90;;
13866;SDS011;7003;46.982;15.248;2023-01-31T13:23:17;0.98;;;0.60;;
13866;SDS011;7003;46.982;15.248;2023-01-31T13:25:52;3.10;;;0.63;;
13866;SDS011;7003;46.982;15.248;2023-01-31T13:28:24;0.85;;;0.43;;
13866;SDS011;7003;46.982;15.248;2023-01-31T13:30:59;2.13;;;1.23;;
13866;SDS011;7003;46.982;15.248;2023-01-31T13:33:33;1.65;;;1.05;;
13866;SDS011;7003;46.982;15.248;2023-01-31T13:36:09;0.55;;;0.45;;
13866;SDS011;7003;46.982;15.248;2023-01-31T13:38:46;1.55;;;0.50;;
13866;SDS011;7003;46.982;15.248;2023-01-31T13:41:23;0.52;;;0.43;;
13866;SDS011;7003;46.982;15.248;2023-01-31T13:43:59;0.50;;;0.45;;
13866;SDS011;7003;46.982;15.248;2023-01-31T13:46:31;0.60;;;0.50;;
13866;SDS011;7003;46.982;15.248;2023-01-31T13:49:07;0.73;;;0.63;;
13866;SDS011;7003;46.982;15.248;2023-01-31T13:51:44;1.70;;;0.77;;
13866;SDS011;7003;46.982;15.248;2023-01-31T13:54:19;2.05;;;0.80;;
13866;SDS011;7003;46.982;15.248;2023-01-31T13:56:54;2.10;;;0.88;;
13866;SDS011;7003;46.982;15.248;2023-01-31T13:59:26;0.30;;;0.30;;
13866;SDS011;7003;46.982;15.248;2023-01-31T14:01:57;2.70;;;0.52;;
13866;SDS011;7003;46.982;15.248;2023-01-31T14:04:28;1.88;;;0.60;;
13866;SDS011;7003;46.982;15.248;2023-01-31T14:15:53;0.38;;;0.35;;
13866;SDS011;7003;46.982;15.248;2023-01-31T14:27:25;1.08;;;0.65;;
13866;SDS011;7003;46.982;15.248;2023-01-31T14:30:08;2.00;;;0.50;;
13866;SDS011;7003;46.982;15.248;2023-01-31T14:32:48;0.40;;;0.40;;
13866;SDS011;7003;46.982;15.248;2023-01-31T14:35:41;1.60;;;0.82;;
13866;SDS011;7003;46.982;15.248;2023-01-31T14:38:29;2.25;;;0.40;;
13866;SDS011;7003;46.982;15.248;2023-01-31T14:41:10;1.38;;;0.88;;
13866;SDS011;7003;46.982;15.248;2023-01-31T14:43:54;1.35;;;0.63;;
13866;SDS011;7003;46.982;15.248;2023-01-31T14:46:48;1.05;;;0.63;;
13866;SDS011;7003;46.982;15.248;2023-01-31T14:52:38;3.65;;;0.50;;
13866;SDS011;7003;46.982;15.248;2023-01-31T14:55:32;0.80;;;0.80;;
13866;SDS011;7003;46.982;15.248;2023-01-31T14:58:11;2.35;;;0.57;;
13866;SDS011;7003;46.982;15.248;2023-01-31T15:00:49;0.55;;;0.50;;
13866;SDS011;7003;46.982;15.248;2023-01-31T15:03:23;2.77;;;0.70;;
13866;SDS011;7003;46.982;15.248;2023-01-31T15:05:54;0.60;;;0.50;;
13866;SDS011;7003;46.982;15.248;2023-01-31T15:08:36;0.93;;;0.83;;
13866;SDS011;7003;46.982;15.248;2023-01-31T15:11:11;0.63;;;0.63;;
13866;SDS011;7003;46.982;15.248;2023-01-31T15:14:01;1.50;;;1.40;;
13866;SDS011;7003;46.982;15.248;2023-01-31T15:16:54;0.87;;;0.87;;
13866;SDS011;7003;46.982;15.248;2023-01-31T15:19:27;1.33;;;1.03;;
13866;SDS011;7003;46.982;15.248;2023-01-31T15:22:03;4.17;;;2.60;;
13866;SDS011;7003;46.982;15.248;2023-01-31T15:24:39;0.67;;;0.67;;
13866;SDS011;7003;46.982;15.248;2023-01-31T15:27:12;1.07;;;0.97;;
13866;SDS011;7003;46.982;15.248;2023-01-31T15:29:47;1.40;;;1.03;;
13866;SDS011;7003;46.982;15.248;2023-01-31T15:32:21;11.13;;;9.53;;
13866;SDS011;7003;46.982;15.248;2023-01-31T15:34:58;4.53;;;3.07;;
13866;SDS011;7003;46.982;15.248;2023-01-31T15:37:33;4.67;;;4.10;;
13866;SDS011;7003;46.982;15.248;2023-01-31T15:40:03;11.67;;;3.27;;
13866;SDS011;7003;46.982;15.248;2023-01-31T15:42:40;7.27;;;2.53;;
13866;SDS011;7003;46.982;15.248;2023-01-31T15:45:20;18.97;;;12.10;;
13866;SDS011;7003;46.982;15.248;2023-01-31T15:47:59;48.57;;;24.37;;
13866;SDS011;7003;46.982;15.248;2023-01-31T15:50:31;51.20;;;23.40;;
13866;SDS011;7003;46.982;15.248;2023-01-31T15:53:01;28.23;;;12.10;;